Time;durP1;ratioP1;P1;durP2;ratioP2;P2;SDS_P1;SDS_P2;PMS_P1;PMS_P2;Temp;Humidity;BMP_temperature;BMP_pressure;BME280_temperature;BME280_humidity;BME280_pressure;Samples;Min_cycle;Max_cycle;Signal;HPM_P1;HPM_P2
2022/01/06 00:00:35;;;;;;;7.03;2.05;;;3.70;99.90;;;;;;5013510;28;20053;-68
2022/01/06 00:03:02;;;;;;;6.82;1.70;;;3.60;99.90;;;;;;5013741;28;20115;-66
2022/01/06 00:05:27;;;;;;;8.27;1.73;;;3.70;99.90;;;;;;4997787;28;20462;-68
2022/01/06 00:07:53;;;;;;;4.82;2.03;;;3.70;99.90;;;;;;5007327;28;20060;-67
2022/01/06 00:10:19;;;;;;;8.57;2.40;;;3.60;99.90;;;;;;5034483;28;20169;-68
2022/01/06 00:13:04;;;;;;;8.07;2.55;;;3.80;99.90;;;;;;5034145;28;20045;-68
2022/01/06 00:15:56;;;;;;;11.30;2.80;;;3.80;99.90;;;;;;5040080;28;20049;-67
2022/01/06 00:23:38;;;;;;;10.68;2.60;;;3.80;99.90;;;;;;5029507;28;20434;-67
2022/01/06 00:26:05;;;;;;;12.82;2.20;;;3.70;99.90;;;;;;5038800;28;20131;-67
2022/01/06 00:28:31;;;;;;;7.93;2.38;;;3.80;99.90;;;;;;5054102;28;20072;-68
2022/01/06 00:30:57;;;;;;;10.93;2.30;;;3.80;99.90;;;;;;5044483;28;20110;-67
2022/01/06 00:33:23;;;;;;;10.40;2.53;;;3.70;99.90;;;;;;5047078;28;20053;-69
2022/01/06 00:35:49;;;;;;;14.90;2.35;;;3.70;99.90;;;;;;5034222;28;20057;-67
2022/01/06 00:38:15;;;;;;;14.18;2.88;;;3.60;99.90;;;;;;5052494;28;20056;-68
2022/01/06 00:40:41;;;;;;;11.43;2.60;;;3.90;99.90;;;;;;5036683;28;20049;-67
2022/01/06 00:43:08;;;;;;;11.45;2.90;;;3.60;99.90;;;;;;5055804;28;20055;-67
2022/01/06 00:45:36;;;;;;;16.02;2.45;;;3.40;99.90;;;;;;5037642;28;20044;-67
2022/01/06 00:48:02;;;;;;;15.40;3.05;;;3.50;99.90;;;;;;5056695;28;20178;-68
2022/01/06 00:50:28;;;;;;;13.20;2.90;;;3.50;99.90;;;;;;5075887;28;20052;-68
2022/01/06 00:52:53;;;;;;;14.32;2.60;;;3.40;99.90;;;;;;5054759;28;20455;-68
2022/01/06 00:55:19;;;;;;;13.80;3.10;;;3.40;99.90;;;;;;5040850;28;20064;-68
2022/01/06 00:57:44;;;;;;;17.52;2.70;;;3.40;99.90;;;;;;5044007;28;20044;-67
2022/01/06 01:00:11;;;;;;;16.73;2.97;;;3.20;99.90;;;;;;5051434;28;20049;-68
2022/01/06 01:02:37;;;;;;;13.15;3.10;;;3.20;99.90;;;;;;5035848;28;20049;-68
2022/01/06 01:05:03;;;;;;;16.45;3.10;;;3.30;99.90;;;;;;5057417;28;20095;-67
2022/01/06 01:07:29;;;;;;;13.07;2.83;;;3.10;99.90;;;;;;5035660;28;20085;-66
2022/01/06 01:09:54;;;;;;;15.40;3.08;;;3.30;99.90;;;;;;5034369;28;20080;-66
2022/01/06 01:12:23;;;;;;;16.13;3.00;;;3.10;99.90;;;;;;5017509;28;20104;-68
2022/01/06 01:15:05;;;;;;;24.08;3.03;;;3.10;99.90;;;;;;4997406;28;20054;-69
2022/01/06 01:17:31;;;;;;;17.02;3.25;;;2.90;99.90;;;;;;5034357;28;20049;-68
2022/01/06 01:19:57;;;;;;;12.63;2.45;;;3.30;99.90;;;;;;5016422;28;20099;-67
2022/01/06 01:22:22;;;;;;;12.90;2.45;;;2.90;99.90;;;;;;5016750;28;20119;-67
2022/01/06 01:24:48;;;;;;;13.73;3.45;;;2.90;99.90;;;;;;5017017;28;20042;-68
2022/01/06 01:27:16;;;;;;;16.48;2.75;;;2.90;99.90;;;;;;5016809;28;20604;-67
2022/01/06 01:29:56;;;;;;;15.63;2.95;;;3.10;99.90;;;;;;5017467;28;20505;-67
2022/01/06 01:32:29;;;;;;;9.23;2.30;;;3.00;99.90;;;;;;5034349;28;20061;-68
2022/01/06 01:35:00;;;;;;;13.48;2.38;;;2.90;99.90;;;;;;5017036;28;20435;-68
2022/01/06 01:37:26;;;;;;;14.30;2.80;;;2.90;99.90;;;;;;5016915;28;20477;-67
2022/01/06 01:39:51;;;;;;;16.25;3.17;;;2.80;99.90;;;;;;5012499;28;20041;-66
2022/01/06 01:42:17;;;;;;;14.70;2.28;;;2.80;99.90;;;;;;5034323;28;20049;-66
2022/01/06 01:44:44;;;;;;;16.00;2.90;;;2.90;99.90;;;;;;5033481;28;20514;-67
2022/01/06 01:47:14;;;;;;;20.63;3.00;;;3.00;99.90;;;;;;5015939;28;20378;-68
2022/01/06 01:49:49;;;;;;;11.13;2.25;;;2.80;99.90;;;;;;5035075;28;20111;-68
2022/01/06 01:52:15;;;;;;;15.63;2.72;;;3.20;99.90;;;;;;4999386;28;20045;-68
2022/01/06 01:54:41;;;;;;;17.27;2.72;;;2.80;99.90;;;;;;5016447;28;20075;-67
2022/01/06 01:57:06;;;;;;;10.38;2.90;;;2.80;99.90;;;;;;5016519;28;20045;-67
2022/01/06 01:59:32;;;;;;;29.83;3.65;;;2.70;99.90;;;;;;5016437;28;20547;-68
2022/01/06 02:01:57;;;;;;;8.40;2.33;;;2.70;99.90;;;;;;5015913;28;20056;-67
2022/01/06 02:04:23;;;;;;;17.63;2.92;;;2.80;99.90;;;;;;5015954;28;20401;-67
2022/01/06 02:06:49;;;;;;;18.08;3.13;;;2.80;99.90;;;;;;5015950;28;20559;-68
2022/01/06 02:09:14;;;;;;;16.77;3.47;;;2.70;99.90;;;;;;5002725;28;20149;-68
2022/01/06 02:11:40;;;;;;;15.82;3.30;;;2.80;99.90;;;;;;5033444;28;20092;-67
2022/01/06 02:14:06;;;;;;;18.80;3.25;;;2.70;99.90;;;;;;5015905;28;20068;-68
2022/01/06 02:16:32;;;;;;;12.80;2.65;;;2.80;99.90;;;;;;5015273;28;20100;-68
2022/01/06 02:18:58;;;;;;;14.93;2.90;;;3.20;99.90;;;;;;5015925;28;20085;-67
2022/01/06 02:21:24;;;;;;;16.98;3.10;;;2.70;99.90;;;;;;5015710;28;20393;-69
2022/01/06 02:23:50;;;;;;;15.52;3.72;;;2.70;99.90;;;;;;5031854;28;20121;-70
2022/01/06 02:26:16;;;;;;;16.65;3.20;;;2.60;99.90;;;;;;5015013;28;20046;-67
2022/01/06 02:28:42;;;;;;;14.55;2.63;;;2.60;99.90;;;;;;5001119;28;20046;-67
2022/01/06 02:31:08;;;;;;;19.23;3.30;;;2.70;99.90;;;;;;4981827;28;20108;-67
2022/01/06 02:33:35;;;;;;;18.58;3.28;;;2.50;99.90;;;;;;5016408;28;20072;-68
2022/01/06 02:36:00;;;;;;;19.75;3.50;;;2.50;99.90;;;;;;5032031;28;20501;-67
2022/01/06 02:38:26;;;;;;;21.30;3.22;;;2.50;99.90;;;;;;5021963;28;20057;-68
2022/01/06 02:40:52;;;;;;;14.50;3.30;;;2.40;99.90;;;;;;5008901;28;20055;-68
2022/01/06 02:43:19;;;;;;;15.32;2.90;;;2.30;99.90;;;;;;5015373;28;20049;-69
2022/01/06 02:45:46;;;;;;;16.63;3.30;;;2.30;99.90;;;;;;4997848;28;20461;-66
2022/01/06 02:48:14;;;;;;;20.15;3.42;;;2.70;99.90;;;;;;5015620;28;20188;-67
2022/01/06 02:50:47;;;;;;;13.65;2.83;;;2.20;99.90;;;;;;5033074;28;20045;-69
2022/01/06 02:53:15;;;;;;;19.55;3.08;;;2.30;99.90;;;;;;5022177;28;20046;-67
2022/01/06 02:55:50;;;;;;;23.40;2.75;;;2.20;99.90;;;;;;5000372;28;20099;-67
2022/01/06 02:58:20;;;;;;;14.75;2.42;;;2.20;99.90;;;;;;5015204;28;20056;-66
2022/01/06 03:00:46;;;;;;;19.45;2.85;;;2.20;99.90;;;;;;5032322;28;20053;-68
2022/01/06 03:03:12;;;;;;;14.85;3.10;;;2.40;99.90;;;;;;5013906;28;20149;-67
2022/01/06 03:05:38;;;;;;;17.27;2.70;;;2.20;99.90;;;;;;5014749;28;20541;-67
2022/01/06 03:08:04;;;;;;;17.80;3.05;;;2.20;99.90;;;;;;5011107;28;20140;-69
2022/01/06 03:10:31;;;;;;;13.25;3.17;;;2.30;99.90;;;;;;5017094;28;20053;-66
2022/01/06 03:12:56;;;;;;;21.95;2.70;;;2.20;99.90;;;;;;5034838;28;20040;-67
2022/01/06 03:15:24;;;;;;;17.98;2.85;;;2.10;99.90;;;;;;5035285;28;20520;-67
2022/01/06 03:17:53;;;;;;;13.30;2.80;;;2.00;99.90;;;;;;5033855;28;20152;-67
2022/01/06 03:20:21;;;;;;;12.90;3.63;;;2.30;99.90;;;;;;5034171;28;20057;-67
2022/01/06 03:22:47;;;;;;;11.73;2.55;;;2.00;99.90;;;;;;5021948;28;20393;-68
2022/01/06 03:25:13;;;;;;;14.93;2.88;;;2.00;99.90;;;;;;5015260;28;20063;-69
2022/01/06 03:27:40;;;;;;;15.90;3.05;;;2.00;99.90;;;;;;5016369;28;20056;-67
2022/01/06 03:30:08;;;;;;;10.30;2.15;;;2.00;99.90;;;;;;5034585;28;20131;-68
2022/01/06 03:32:34;;;;;;;24.52;3.08;;;2.00;99.90;;;;;;5032809;28;20393;-68
2022/01/06 03:35:00;;;;;;;16.15;2.63;;;2.10;99.90;;;;;;5018321;28;20095;-67
2022/01/06 03:37:26;;;;;;;15.88;2.65;;;2.10;99.90;;;;;;5023170;28;20151;-68
2022/01/06 03:39:52;;;;;;;16.85;2.63;;;1.80;99.90;;;;;;5026732;28;20048;-67
2022/01/06 03:42:17;;;;;;;13.75;2.55;;;1.90;99.90;;;;;;5034123;28;20077;-67
2022/01/06 03:44:43;;;;;;;12.15;2.70;;;1.90;99.90;;;;;;5034695;28;20084;-67
2022/01/06 03:47:09;;;;;;;12.18;2.10;;;1.90;99.90;;;;;;5033994;28;20045;-67
2022/01/06 03:49:35;;;;;;;8.25;2.25;;;1.90;99.90;;;;;;5034758;28;20056;-66
2022/01/06 03:52:01;;;;;;;13.30;2.80;;;1.90;99.90;;;;;;5024393;28;20076;-68
2022/01/06 03:54:26;;;;;;;13.43;2.40;;;2.00;99.90;;;;;;5014640;28;20485;-68
2022/01/06 03:56:52;;;;;;;13.20;2.30;;;1.90;99.90;;;;;;5029138;28;20056;-67
2022/01/06 03:59:19;;;;;;;12.25;2.15;;;1.80;99.90;;;;;;5034262;28;20733;-67
2022/01/06 04:01:45;;;;;;;19.33;1.95;;;1.80;99.90;;;;;;5033778;28;20492;-67
2022/01/06 04:04:13;;;;;;;16.67;2.95;;;1.80;99.90;;;;;;5034498;28;20128;-67
2022/01/06 04:06:39;;;;;;;12.98;2.35;;;1.80;99.90;;;;;;5011527;28;20135;-68
2022/01/06 04:09:05;;;;;;;13.35;2.00;;;1.80;99.90;;;;;;5016899;28;20061;-67
2022/01/06 04:11:31;;;;;;;10.07;1.88;;;1.80;99.90;;;;;;5014315;28;20046;-67
2022/01/06 04:13:57;;;;;;;13.70;2.22;;;2.00;99.90;;;;;;5015195;28;20069;-67
2022/01/06 04:16:24;;;;;;;13.68;2.10;;;1.70;99.90;;;;;;5017868;28;20053;-67
2022/01/06 04:18:50;;;;;;;12.90;2.97;;;1.80;99.90;;;;;;5017847;28;20049;-69
2022/01/06 04:21:15;;;;;;;11.15;2.13;;;1.80;99.90;;;;;;5014660;28;20366;-68
2022/01/06 04:23:41;;;;;;;14.15;2.50;;;1.70;99.90;;;;;;5018714;28;20049;-67
2022/01/06 04:26:07;;;;;;;12.98;2.72;;;1.70;99.90;;;;;;5017788;28;20419;-69
2022/01/06 04:28:32;;;;;;;13.20;2.28;;;2.10;99.90;;;;;;5018557;28;20046;-67
2022/01/06 04:30:58;;;;;;;12.63;2.67;;;1.70;99.90;;;;;;5017195;28;20131;-66
2022/01/06 04:33:23;;;;;;;13.88;2.20;;;1.80;99.90;;;;;;5006728;28;20150;-67
2022/01/06 04:35:49;;;;;;;12.00;1.98;;;1.70;99.90;;;;;;5005117;28;20045;-67
2022/01/06 04:38:14;;;;;;;12.02;2.53;;;1.60;99.90;;;;;;5003172;28;20049;-67
2022/01/06 04:40:40;;;;;;;14.93;2.38;;;1.80;99.90;;;;;;5015742;28;20049;-67
2022/01/06 04:43:07;;;;;;;16.95;2.90;;;1.60;99.90;;;;;;5017794;28;20045;-67
2022/01/06 04:45:33;;;;;;;12.13;2.85;;;1.70;99.90;;;;;;5016074;28;20084;-66
2022/01/06 04:47:59;;;;;;;14.30;2.42;;;1.60;99.90;;;;;;5015428;28;20046;-68
2022/01/06 04:50:24;;;;;;;15.27;2.20;;;1.60;99.90;;;;;;5034325;28;20124;-67
2022/01/06 04:52:50;;;;;;;8.90;2.35;;;1.50;99.90;;;;;;5001176;28;20053;-69
2022/01/06 04:55:15;;;;;;;13.25;2.63;;;1.60;99.90;;;;;;5018431;28;20382;-68
2022/01/06 04:57:41;;;;;;;17.75;2.28;;;1.40;99.90;;;;;;5017664;28;20543;-66
2022/01/06 05:00:08;;;;;;;11.38;2.15;;;1.40;99.90;;;;;;5017883;28;20037;-67
2022/01/06 05:02:34;;;;;;;12.20;1.88;;;1.30;99.90;;;;;;5004714;28;20048;-67
2022/01/06 05:05:00;;;;;;;13.05;2.42;;;1.10;99.90;;;;;;5018000;28;20057;-66
2022/01/06 05:07:25;;;;;;;11.38;2.13;;;1.10;99.90;;;;;;5020392;28;20129;-67
2022/01/06 05:09:51;;;;;;;11.27;1.67;;;1.40;99.90;;;;;;5024734;28;20076;-69
2022/01/06 05:12:17;;;;;;;14.73;2.83;;;1.10;99.90;;;;;;5017945;28;20050;-69
2022/01/06 05:14:42;;;;;;;14.27;2.65;;;1.20;99.90;;;;;;5035462;28;20049;-67
2022/01/06 05:17:08;;;;;;;6.68;1.60;;;1.20;99.90;;;;;;5016702;28;20057;-67
2022/01/06 05:19:34;;;;;;;9.57;1.88;;;1.20;99.90;;;;;;5036234;28;20058;-68
2022/01/06 05:22:00;;;;;;;12.38;2.55;;;1.30;99.90;;;;;;5043851;28;20397;-66
2022/01/06 05:24:26;;;;;;;11.13;1.88;;;1.00;99.90;;;;;;5037846;28;20049;-67
2022/01/06 05:26:55;;;;;;;13.07;2.15;;;1.10;99.90;;;;;;5020061;28;20056;-68
2022/01/06 05:29:21;;;;;;;13.18;1.85;;;0.90;99.90;;;;;;5023901;28;20052;-67
2022/01/06 05:31:46;;;;;;;12.95;2.10;;;0.90;99.90;;;;;;5027098;28;20045;-68
2022/01/06 05:34:12;;;;;;;14.40;2.58;;;1.00;99.90;;;;;;5024024;28;20053;-67
2022/01/06 05:36:38;;;;;;;17.05;2.40;;;0.80;99.90;;;;;;5040842;28;20144;-66
2022/01/06 05:39:04;;;;;;;11.02;2.33;;;0.80;99.90;;;;;;5035972;28;20089;-67
2022/01/06 05:41:30;;;;;;;13.98;2.22;;;0.70;99.90;;;;;;5036215;28;20194;-66
2022/01/06 05:43:55;;;;;;;14.95;1.73;;;0.90;99.90;;;;;;5036981;28;20231;-67
2022/01/06 05:46:21;;;;;;;12.10;2.25;;;0.70;99.90;;;;;;5054401;28;20053;-69
2022/01/06 05:48:47;;;;;;;12.80;2.25;;;0.50;99.90;;;;;;5031778;28;20053;-67
2022/01/06 05:51:13;;;;;;;12.68;2.05;;;0.60;99.90;;;;;;5036540;28;20118;-66
2022/01/06 05:53:39;;;;;;;9.75;1.73;;;0.40;99.90;;;;;;5033354;28;20481;-66
2022/01/06 05:56:04;;;;;;;12.77;2.33;;;0.40;99.90;;;;;;5050293;28;20053;-67
2022/01/06 05:58:30;;;;;;;9.32;1.98;;;1.30;99.90;;;;;;5031893;28;20065;-67
2022/01/06 06:00:56;;;;;;;13.25;2.17;;;0.40;99.90;;;;;;5034916;28;20053;-66
2022/01/06 06:03:22;;;;;;;10.02;2.28;;;0.30;99.90;;;;;;5029418;28;20053;-68
2022/01/06 06:05:48;;;;;;;10.63;1.98;;;0.30;99.90;;;;;;5035319;28;20132;-67
2022/01/06 06:08:14;;;;;;;15.43;2.13;;;0.30;99.90;;;;;;5036025;28;20111;-65
2022/01/06 06:10:39;;;;;;;14.70;2.55;;;0.20;99.90;;;;;;5035091;28;20059;-65
2022/01/06 06:13:05;;;;;;;14.75;2.08;;;0.30;99.90;;;;;;5036003;28;20128;-68
2022/01/06 06:15:34;;;;;;;13.32;1.98;;;0.40;99.90;;;;;;5052628;28;20056;-66
2022/01/06 06:18:07;;;;;;;11.90;2.22;;;0.10;99.90;;;;;;5035082;28;20078;-67
2022/01/06 06:20:33;;;;;;;9.52;1.88;;;0.20;99.90;;;;;;5034615;28;20057;-66
2022/01/06 06:22:58;;;;;;;10.45;1.67;;;0.10;99.90;;;;;;5035590;28;20129;-66
2022/01/06 06:25:25;;;;;;;14.98;1.88;;;0.20;99.90;;;;;;5035874;28;20075;-66
2022/01/06 06:27:50;;;;;;;9.48;1.95;;;0.10;99.90;;;;;;5035153;28;20060;-66
2022/01/06 06:30:16;;;;;;;12.50;2.08;;;0.00;99.90;;;;;;5036352;28;20057;-68
2022/01/06 06:32:42;;;;;;;10.90;1.75;;;0.10;99.90;;;;;;5034844;28;20500;-66
2022/01/06 06:35:07;;;;;;;11.43;2.38;;;0.10;99.90;;;;;;5035317;28;20475;-66
2022/01/06 06:37:36;;;;;;;15.02;2.50;;;0.30;99.90;;;;;;5034863;28;20106;-67
2022/01/06 06:40:03;;;;;;;17.27;2.38;;;0.00;99.90;;;;;;5051364;28;20052;-66
2022/01/06 06:42:28;;;;;;;17.80;4.03;;;0.00;99.90;;;;;;5034968;28;20045;-68
2022/01/06 06:44:54;;;;;;;15.77;2.38;;;0.00;99.90;;;;;;5035488;28;20048;-67
2022/01/06 06:47:20;;;;;;;14.20;1.98;;;0.00;99.90;;;;;;5050747;28;20481;-67
2022/01/06 06:49:46;;;;;;;13.35;1.98;;;0.00;99.90;;;;;;5034987;28;20053;-66
2022/01/06 06:52:12;;;;;;;11.07;2.00;;;-0.20;99.90;;;;;;5035351;28;20055;-69
2022/01/06 06:54:38;;;;;;;14.38;2.10;;;-0.30;99.90;;;;;;5034808;28;20446;-67
2022/01/06 06:57:04;;;;;;;14.43;2.45;;;-0.20;99.90;;;;;;5034068;28;20057;-68
2022/01/06 06:59:29;;;;;;;12.13;1.92;;;-0.70;99.90;;;;;;5035212;28;20461;-67
2022/01/06 07:01:55;;;;;;;17.75;2.20;;;-0.20;99.90;;;;;;5030274;28;20128;-66
2022/01/06 07:04:20;;;;;;;10.00;2.25;;;-0.20;99.90;;;;;;5029663;28;20103;-67
2022/01/06 07:06:46;;;;;;;21.00;2.63;;;-0.40;99.90;;;;;;5034583;28;20057;-66
2022/01/06 07:09:12;;;;;;;12.98;2.33;;;-0.30;99.90;;;;;;5030295;28;20068;-66
2022/01/06 07:11:37;;;;;;;9.27;1.77;;;-0.20;99.90;;;;;;5051518;28;20045;-66
2022/01/06 07:14:03;;;;;;;12.05;2.65;;;-0.30;99.90;;;;;;5051484;28;20045;-68
2022/01/06 07:16:29;;;;;;;14.10;2.15;;;-0.20;99.90;;;;;;5039280;28;20094;-67
2022/01/06 07:18:54;;;;;;;15.70;1.80;;;-0.30;99.90;;;;;;5035140;28;20048;-66
2022/01/06 07:21:20;;;;;;;9.07;1.63;;;-0.30;99.90;;;;;;5052165;28;20053;-66
2022/01/06 07:23:46;;;;;;;14.35;2.67;;;-0.40;99.90;;;;;;5035244;28;20362;-67
2022/01/06 07:26:12;;;;;;;13.45;2.33;;;-0.40;99.90;;;;;;5034832;28;20057;-68
2022/01/06 07:28:38;;;;;;;12.27;2.47;;;0.40;99.90;;;;;;5032504;28;20548;-67
2022/01/06 07:31:04;;;;;;;11.77;2.10;;;-0.50;99.90;;;;;;5032108;28;20057;-66
2022/01/06 07:33:30;;;;;;;14.82;1.83;;;0.00;99.90;;;;;;5015630;28;20051;-69
2022/01/06 07:35:56;;;;;;;10.57;2.40;;;-0.40;99.90;;;;;;5014917;28;20569;-67
2022/01/06 07:38:23;;;;;;;12.80;1.60;;;-0.40;99.90;;;;;;5015402;28;20146;-67
2022/01/06 07:40:48;;;;;;;9.70;2.28;;;-0.50;99.90;;;;;;5015273;28;20121;-68
2022/01/06 07:43:14;;;;;;;8.38;2.17;;;-0.50;99.90;;;;;;5022214;28;20485;-66
2022/01/06 07:45:40;;;;;;;13.73;1.70;;;-0.50;99.90;;;;;;5032990;28;20121;-68
2022/01/06 07:48:15;;;;;;;14.80;2.33;;;-0.50;99.90;;;;;;5034467;28;20068;-68
2022/01/06 07:50:42;;;;;;;16.88;2.72;;;-0.60;99.90;;;;;;5033817;28;20053;-68
2022/01/06 07:53:07;;;;;;;14.15;2.28;;;-0.50;99.90;;;;;;5034749;28;20057;-67
2022/01/06 07:55:33;;;;;;;14.43;2.40;;;-0.50;99.90;;;;;;5020655;28;20056;-67
2022/01/06 07:58:01;;;;;;;16.40;2.78;;;-0.50;99.90;;;;;;5032309;28;20187;-66
2022/01/06 08:00:27;;;;;;;11.38;2.20;;;;;;;;;;5016631;28;20135;-68
2022/01/06 08:02:55;;;;;;;13.32;2.03;;;;;;;;;;5017130;28;20057;-67
2022/01/06 08:05:25;;;;;;;11.75;3.05;;;;;;;;;;5033720;28;20127;-67
2022/01/06 08:07:52;;;;;;;12.07;2.08;;;;;;;;;;5033508;28;20064;-67
2022/01/06 08:10:19;;;;;;;13.10;1.92;;;;;;;;;;5033732;28;20057;-67
2022/01/06 08:12:45;;;;;;;14.10;3.45;;;;;;;;;;5033043;28;20049;-67
2022/01/06 08:15:16;;;;;;;14.10;2.38;;;;;;;;;;5034455;28;20056;-67
2022/01/06 08:17:44;;;;;;;14.13;1.85;;;;;;;;;;5027396;28;20125;-67
2022/01/06 08:20:12;;;;;;;11.18;1.90;;;;;;;;;;5048116;28;20045;-68
2022/01/06 08:22:39;;;;;;;14.32;2.50;;;;;;;;;;5033388;28;20080;-68
2022/01/06 08:25:08;;;;;;;13.48;3.28;;;;;;;;;;5033868;28;20422;-67
2022/01/06 08:27:35;;;;;;;19.02;5.10;;;;;;;;;;5034221;28;20379;-68
2022/01/06 08:30:03;;;;;;;20.20;5.93;;;;;;;;;;5034075;28;20048;-66
2022/01/06 08:32:30;;;;;;;25.42;9.73;;;;;;;;;;5033272;28;20106;-66
2022/01/06 08:34:57;;;;;;;27.42;13.60;;;;;;;;;;5033381;28;20041;-67
2022/01/06 08:37:26;;;;;;;41.40;18.13;;;;;;;;;;5034389;28;20084;-65
2022/01/06 08:39:53;;;;;;;41.92;18.33;;;;;;;;;;5033691;28;20409;-67
2022/01/06 08:42:20;;;;;;;44.60;18.60;;;;;;;;;;5034258;28;20057;-66
2022/01/06 08:44:47;;;;;;;17.98;7.07;;;;;;;;;;5034367;28;20451;-67
2022/01/06 08:47:14;;;;;;;18.58;7.45;;;;;;;;;;5033585;28;20049;-67
2022/01/06 08:49:41;;;;;;;15.02;5.80;;;;;;;;;;5033281;28;20072;-67
2022/01/06 08:52:08;;;;;;;20.98;7.30;;;;;;;;;;5033779;28;20091;-68
2022/01/06 08:54:35;;;;;;;26.60;9.52;;;;;;;;;;5033797;28;20052;-68
2022/01/06 08:57:04;;;;;;;26.25;9.40;;;;;;;;;;5022327;28;20058;-68
2022/01/06 08:59:31;;;;;;;18.85;6.50;;;;;;;;;;5014223;28;20077;-67
2022/01/06 09:01:58;;;;;;;15.55;5.63;;;;;;;;;;5015910;28;20049;-67
2022/01/06 09:04:25;;;;;;;20.33;5.95;;;;;;;;;;5018460;28;20044;-66
2022/01/06 09:06:52;;;;;;;14.65;4.75;;;;;;;;;;5037883;28;20057;-65
2022/01/06 09:09:20;;;;;;;16.98;4.82;;;;;;;;;;5037061;28;20473;-67
2022/01/06 09:11:47;;;;;;;23.25;9.40;;;;;;;;;;5037138;28;20123;-66
2022/01/06 09:14:14;;;;;;;15.65;7.35;;;;;;;;;;5037137;28;20116;-67
2022/01/06 09:16:42;;;;;;;14.57;3.70;;;;;;;;;;5054190;28;20064;-68
2022/01/06 09:19:09;;;;;;;13.15;3.42;;;;;;;;;;5037555;28;20053;-68
2022/01/06 09:21:39;;;;;;;13.43;3.15;;;;;;;;;;5036969;28;20514;-67
2022/01/06 09:24:07;;;;;;;12.63;2.70;;;;;;;;;;5037506;28;20056;-67
2022/01/06 09:26:37;;;;;;;15.23;3.00;;;;;;;;;;5054958;28;20136;-66
2022/01/06 09:29:13;;;;;;;20.05;3.47;;;;;;;;;;5051064;28;20049;-68
2022/01/06 09:31:44;;;;;;;25.55;3.47;;;;;;;;;;5036417;28;20055;-66
2022/01/06 09:34:11;;;;;;;17.98;2.88;;;;;;;;;;5037030;28;20075;-68
2022/01/06 09:36:42;;;;;;;17.73;3.40;;;;;;;;;;5021427;28;20102;-66
2022/01/06 09:39:10;;;;;;;12.65;2.65;;;;;;;;;;5037222;28;20045;-67
2022/01/06 09:41:37;;;;;;;17.23;2.88;;;;;;;;;;5036426;28;20053;-68
2022/01/06 09:44:05;;;;;;;23.63;3.63;;;;;;;;;;5030344;28;20124;-68
2022/01/06 09:46:35;;;;;;;11.82;2.67;;;;;;;;;;5048109;28;20128;-68
2022/01/06 09:49:02;;;;;;;16.63;2.78;;;;;;;;;;5051579;28;20055;-67
2022/01/06 09:51:30;;;;;;;13.35;2.90;;;;;;;;;;5049748;28;20053;-67
2022/01/06 09:54:01;;;;;;;17.13;3.05;;;;;;;;;;5044503;28;20060;-66
2022/01/06 09:56:50;;;;;;;11.65;3.05;;;;;;;;;;5040231;28;20056;-68
2022/01/06 09:59:16;;;;;;;11.73;3.28;;;;;;;;;;5027485;28;20059;-67
2022/01/06 10:01:43;;;;;;;22.50;3.25;;;;;;;;;;5038810;28;20041;-67
2022/01/06 10:04:29;;;;;;;19.48;3.08;;;;;;;;;;5017968;28;20505;-66
2022/01/06 10:07:02;;;;;;;17.95;3.20;;;;;;;;;;5017260;28;20041;-67
2022/01/06 10:09:31;;;;;;;19.92;3.50;;;;;;;;;;5033953;28;20107;-67
2022/01/06 10:11:59;;;;;;;18.98;3.45;;;;;;;;;;5017691;28;20053;-67
2022/01/06 10:14:32;;;;;;;14.10;3.50;;;;;;;;;;5045453;28;20057;-67
2022/01/06 10:17:04;;;;;;;15.55;3.28;;;;;;;;;;5029611;28;20055;-67
2022/01/06 10:19:31;;;;;;;13.40;4.10;;;;;;;;;;5035872;28;20133;-64
2022/01/06 10:21:57;;;;;;;18.42;3.58;;;;;;;;;;5052869;28;20056;-66
2022/01/06 10:24:26;;;;;;;21.98;3.58;;;;;;;;;;5036393;28;20084;-65
2022/01/06 10:27:00;;;;;;;17.33;3.42;;;;;;;;;;5019458;28;20085;-67
2022/01/06 10:29:29;;;;;;;16.25;3.85;;;;;;;;;;5031797;28;20536;-65
2022/01/06 10:32:06;;;;;;;19.48;3.58;;;;;;;;;;5031915;28;20417;-65
2022/01/06 10:34:33;;;;;;;16.60;3.35;;;;;;;;;;5034076;28;20061;-67
2022/01/06 10:37:01;;;;;;;12.60;2.50;;;;;;;;;;5035399;28;20392;-66
2022/01/06 10:39:40;;;;;;;17.80;2.63;;;;;;;;;;5035960;28;20057;-66
2022/01/06 10:42:07;;;;;;;15.55;3.38;;;;;;;;;;5052853;28;20049;-66
2022/01/06 10:44:33;;;;;;;14.85;3.08;;;;;;;;;;5032885;28;20049;-67
2022/01/06 10:47:00;;;;;;;15.68;2.63;;;;;;;;;;5035261;28;20446;-64
2022/01/06 10:49:26;;;;;;;13.68;3.15;;;;;;;;;;5035859;28;20053;-65
2022/01/06 10:51:53;;;;;;;14.50;2.80;;;;;;;;;;5035795;28;20405;-67
2022/01/06 10:54:21;;;;;;;20.25;4.55;;;3.20;99.90;;;;;;5035231;28;20519;-68
2022/01/06 10:56:57;;;;;;;21.55;2.97;;;3.20;99.90;;;;;;5034502;28;20088;-68
2022/01/06 10:59:25;;;;;;;23.75;3.15;;;3.70;99.90;;;;;;5035013;28;20057;-68
2022/01/06 11:01:50;;;;;;;13.70;2.65;;;3.50;99.90;;;;;;5018518;28;20132;-67
2022/01/06 11:04:16;;;;;;;9.13;2.92;;;3.40;99.90;;;;;;5033554;28;20087;-68
2022/01/06 11:06:43;;;;;;;10.15;2.80;;;;;;;;;;5016955;28;20053;-68
2022/01/06 11:09:10;;;;;;;17.85;4.00;;;3.70;99.90;;;;;;5034485;28;20079;-68
2022/01/06 11:12:26;;;;;;;14.10;3.40;;;3.80;99.90;;;;;;5037284;28;20041;-69
2022/01/06 11:14:29;;;;;;;11.18;3.08;;;3.80;99.90;;;;;;5034671;28;20132;-67
2022/01/06 11:16:56;;;;;;;13.77;3.00;;;3.90;99.90;;;;;;5035077;28;20407;-69
2022/01/06 11:19:23;;;;;;;18.52;3.55;;;4.00;99.90;;;;;;5035434;28;20532;-67
2022/01/06 11:21:50;;;;;;;7.85;2.20;;;4.10;99.90;;;;;;5038110;28;20461;-68
2022/01/06 11:24:23;;;;;;;18.25;3.97;;;4.10;99.90;;;;;;5034129;28;20049;-68
2022/01/06 11:27:01;;;;;;;14.30;3.22;;;4.20;99.90;;;;;;5034343;28;20358;-68
2022/01/06 11:29:35;;;;;;;10.55;2.72;;;4.20;99.90;;;;;;5015324;28;20406;-68
2022/01/06 11:32:04;;;;;;;17.60;3.45;;;4.30;99.90;;;;;;5037436;28;20116;-68
2022/01/06 11:34:37;;;;;;;13.80;2.97;;;4.40;99.90;;;;;;5002707;28;20080;-68
2022/01/06 11:37:11;;;;;;;14.93;2.97;;;4.50;99.90;;;;;;5018255;28;20053;-68
2022/01/06 11:39:37;;;;;;;13.23;3.97;;;;;;;;;;5035118;28;20099;-68
2022/01/06 11:42:23;;;;;;;14.48;3.35;;;4.70;99.90;;;;;;5033796;28;20882;-68
2022/01/06 11:44:53;;;;;;;13.60;3.60;;;4.70;99.90;;;;;;5014820;28;20050;-67
2022/01/06 11:47:37;;;;;;;13.07;3.42;;;4.80;99.90;;;;;;5047711;28;20447;-68
2022/01/06 11:50:24;;;;;;;13.07;3.03;;;4.80;99.90;;;;;;5034958;28;20049;-66
2022/01/06 11:52:53;;;;;;;10.48;3.40;;;4.80;99.90;;;;;;5052541;28;20055;-68
2022/01/06 11:55:19;;;;;;;12.95;3.50;;;4.80;99.90;;;;;;5044478;28;20061;-67
2022/01/06 11:57:46;;;;;;;13.23;3.13;;;4.90;99.90;;;;;;5021106;28;20439;-69
2022/01/06 12:00:26;;;;;;;18.77;3.63;;;4.90;99.90;;;;;;5034618;28;20537;-66
2022/01/06 12:03:10;;;;;;;12.70;2.95;;;5.00;99.90;;;;;;5034101;28;20140;-68
2022/01/06 12:05:48;;;;;;;20.10;4.22;;;5.00;99.90;;;;;;5033790;28;20400;-67
2022/01/06 12:08:18;;;;;;;14.50;3.45;;;5.00;99.90;;;;;;5052925;28;20068;-68
2022/01/06 12:10:50;;;;;;;12.55;3.17;;;5.00;99.90;;;;;;5052276;28;20136;-68
2022/01/06 12:13:17;;;;;;;14.98;3.80;;;5.10;99.90;;;;;;5048149;28;20041;-67
2022/01/06 12:16:01;;;;;;;17.08;8.07;;;5.10;99.90;;;;;;5033715;28;20109;-68
2022/01/06 12:18:28;;;;;;;12.98;3.70;;;5.10;99.90;;;;;;5047067;28;20049;-68
2022/01/06 12:20:57;;;;;;;18.17;4.20;;;5.20;99.90;;;;;;5016461;28;20520;-68
2022/01/06 12:23:24;;;;;;;12.40;3.42;;;5.20;99.90;;;;;;5035042;28;20053;-69
2022/01/06 12:26:03;;;;;;;18.77;3.88;;;5.50;99.90;;;;;;5034256;28;20049;-69
2022/01/06 12:28:32;;;;;;;14.25;3.67;;;5.30;99.90;;;;;;5017728;28;20068;-70
2022/01/06 12:30:59;;;;;;;14.32;2.95;;;5.30;99.90;;;;;;5031847;28;20056;-69
2022/01/06 12:33:26;;;;;;;16.38;3.13;;;5.40;99.90;;;;;;5014692;28;20094;-66
2022/01/06 12:35:54;;;;;;;15.80;3.50;;;5.50;99.90;;;;;;5016479;28;20541;-69
2022/01/06 12:38:31;;;;;;;19.55;4.05;;;5.60;99.90;;;;;;5035854;28;20517;-69
2022/01/06 12:40:58;;;;;;;12.05;3.08;;;5.70;99.90;;;;;;5035715;28;20057;-67
2022/01/06 12:43:26;;;;;;;22.98;3.35;;;5.70;99.90;;;;;;5034598;28;20068;-69
2022/01/06 12:46:09;;;;;;;13.77;2.83;;;5.80;99.90;;;;;;5037678;28;20057;-68
2022/01/06 12:48:38;;;;;;;13.82;2.78;;;5.80;99.90;;;;;;5038245;28;20092;-67
2022/01/06 12:51:05;;;;;;;13.50;2.85;;;5.80;99.90;;;;;;5037900;28;20049;-68
2022/01/06 12:53:33;;;;;;;13.07;3.42;;;5.80;99.90;;;;;;5038273;28;20389;-68
2022/01/06 12:55:59;;;;;;;15.65;3.45;;;5.80;99.90;;;;;;5037670;28;20064;-67
2022/01/06 12:58:35;;;;;;;12.90;2.65;;;5.80;99.90;;;;;;5034754;28;20102;-69
2022/01/06 13:01:10;;;;;;;14.05;2.63;;;5.90;99.90;;;;;;5035890;28;20061;-68
2022/01/06 13:03:40;;;;;;;12.98;3.38;;;5.90;99.90;;;;;;5037304;28;20132;-68
2022/01/06 13:06:14;;;;;;;12.85;2.55;;;5.90;99.90;;;;;;5034254;28;20147;-69
2022/01/06 13:08:49;;;;;;;10.60;3.00;;;6.00;99.90;;;;;;5048475;28;20098;-70
2022/01/06 13:11:15;;;;;;;11.07;2.83;;;5.90;99.90;;;;;;5037167;28;20049;-68
2022/01/06 13:13:51;;;;;;;12.27;3.78;;;5.90;99.90;;;;;;5037474;28;20057;-68
2022/01/06 13:16:32;;;;;;;13.48;2.85;;;5.90;99.90;;;;;;5021113;28;20493;-68